Ashland, VA

8:25 PM EST on January 24, 2017 (GMT -0500)
Ashland | | Change Station
Active Advisory: Small Craft Advisory

Elev 210 ft 37.75 °N, 77.48 °W | Updated 10 minutes ago

Clear
Clear
50.5 °F
Feels Like 50.5 °F
N
3.0
Wind Variable Wind from West
Gusts 9.0 mph

Today
High -- | Low -- °F
--% Chance of Precip.
Yesterday
High -- | Low -- °F
Precip. -- in
Pressure 29.68 in
Visibility 10.0 miles
Clouds Clear
Dew Point 40 °F
Humidity 68%
Rainfall 0.00 in
Snow Depth Not available.
7:19 AM 5:24 PM
Waning Crescent, 9% visible
METAR KOFP 250054Z AUTO 28012G18KT 10SM CLR 10/02 A2967 RMK AO2 SLP048 T01000022
Pressure 29.68 in
Visibility 10.0 miles
Clouds Clear
Dew Point 40 °F
Humidity 68%
Rainfall 0.00 in
Snow Depth Not available.
7:19 AM 5:24 PM
Waning Crescent, 9% visible
METAR KOFP 250054Z AUTO 28012G18KT 10SM CLR 10/02 A2967 RMK AO2 SLP048 T01000022

Get Your Daily Forecast Email!

Thanks for signing up!

Be on the lookout for a verification email in your inbox.

You'll start receiving the daily forecast at 8 AM.

×

10-Day Weather Forecast

Almanac

Astronomy

Jan. 24, 2017 Rise Set
Actual Time
Civil Twilight
Nautical Twilight
Astronomical Twilight
Moon
Length of Visible Light
Length of Day
Tomorrow will be .
, % of the Moon is Illuminated

Today's Extremes

State Highs State Lows

Community

WunderPhotos

Upload Photos

1,962,540 photos uploaded!

WunderBlog® & News

Nearby

Air Quality

  Air Quality AQ Index Pollutant
Not available.

Snow Depth

Station Depth Elevation

Earthquake Activity

City Distance Mag. Time & Date
Minimum magnitude displayed is 2.5.

Coastal Water Temperatures

Place Temperature

Stations

Nearby Weather Stations

Station Location Temp. Windchill Dew Point Humidity Wind Precip. Elev Updated Type
                   

Watches & Warnings

Small Craft Advisory
Issued: 6:21 PM EST Jan. 24, 2017 – National Weather Service

... Small Craft Advisory remains in effect until 10 PM EST this
evening...

* winds... 18 to 33 knots within the Small Craft Advisory.

Precautionary/preparedness actions...

A Small Craft Advisory means winds of 18 to 33 knots are imminent
or occurring. Boaters operating smaller vessels should avoid
navigating in these conditions.